Terminal Aerodrome Forecast
Issued by NWS Caribou, ME

Home | Current Version | Previous Version | Text Only | Print | Product List | Glossary On
Versions: 1 2 3 4 5 6 7 8 9 10 11 12 13 14
000
FTUS41 KCAR 030558
TAFBGR
TAF
KBGR 030558Z 0306/0406 28004KT 6SM BR SCT200
     FM030900 33004KT 3SM BR SCT090
     FM031200 VRB03KT 6SM BR SCT010
     FM031500 35007KT P6SM SCT040=

USA.gov is the U.S. government's official web portal to all federal, state and local government web resources and services.